sensor_id;sensor_type;location;lat;lon;timestamp;P1;durP1;ratioP1;P2;durP2;ratioP2
23578;SDS011;11967;50.852;4.400;2022-11-15T00:01:40;24.65;;;16.48;;
23578;SDS011;11967;50.852;4.400;2022-11-15T00:04:06;26.77;;;17.67;;
23578;SDS011;11967;50.852;4.400;2022-11-15T00:06:31;25.80;;;17.48;;
23578;SDS011;11967;50.852;4.400;2022-11-15T00:08:58;29.88;;;17.48;;
23578;SDS011;11967;50.852;4.400;2022-11-15T00:11:24;28.10;;;16.83;;
23578;SDS011;11967;50.852;4.400;2022-11-15T00:13:49;26.30;;;17.55;;
23578;SDS011;11967;50.852;4.400;2022-11-15T00:16:15;26.33;;;16.90;;
23578;SDS011;11967;50.852;4.400;2022-11-15T00:18:41;25.63;;;17.67;;
23578;SDS011;11967;50.852;4.400;2022-11-15T00:21:07;25.23;;;16.90;;
23578;SDS011;11967;50.852;4.400;2022-11-15T00:23:36;26.27;;;17.70;;
23578;SDS011;11967;50.852;4.400;2022-11-15T00:26:02;27.95;;;16.80;;
23578;SDS011;11967;50.852;4.400;2022-11-15T00:28:28;29.38;;;17.95;;
23578;SDS011;11967;50.852;4.400;2022-11-15T00:30:59;26.02;;;17.65;;
23578;SDS011;11967;50.852;4.400;2022-11-15T00:33:26;28.85;;;18.48;;
23578;SDS011;11967;50.852;4.400;2022-11-15T00:35:51;25.13;;;18.13;;
23578;SDS011;11967;50.852;4.400;2022-11-15T00:38:17;28.90;;;18.33;;
23578;SDS011;11967;50.852;4.400;2022-11-15T00:40:42;27.33;;;18.50;;
23578;SDS011;11967;50.852;4.400;2022-11-15T00:43:08;29.67;;;18.90;;
23578;SDS011;11967;50.852;4.400;2022-11-15T00:45:34;31.33;;;18.77;;
23578;SDS011;11967;50.852;4.400;2022-11-15T00:47:59;31.13;;;18.63;;
23578;SDS011;11967;50.852;4.400;2022-11-15T00:50:25;28.23;;;18.50;;
23578;SDS011;11967;50.852;4.400;2022-11-15T00:52:50;32.13;;;18.58;;
23578;SDS011;11967;50.852;4.400;2022-11-15T00:55:16;26.73;;;18.77;;
23578;SDS011;11967;50.852;4.400;2022-11-15T00:57:43;29.90;;;19.05;;
23578;SDS011;11967;50.852;4.400;2022-11-15T01:00:09;26.90;;;18.75;;
23578;SDS011;11967;50.852;4.400;2022-11-15T01:02:36;31.83;;;19.63;;
23578;SDS011;11967;50.852;4.400;2022-11-15T01:05:01;34.72;;;20.63;;
23578;SDS011;11967;50.852;4.400;2022-11-15T01:07:27;31.80;;;21.13;;
23578;SDS011;11967;50.852;4.400;2022-11-15T01:09:53;36.15;;;21.35;;
23578;SDS011;11967;50.852;4.400;2022-11-15T01:12:18;35.97;;;22.08;;
23578;SDS011;11967;50.852;4.400;2022-11-15T01:14:44;34.53;;;21.52;;
23578;SDS011;11967;50.852;4.400;2022-11-15T01:17:09;34.85;;;21.70;;
23578;SDS011;11967;50.852;4.400;2022-11-15T01:19:35;31.27;;;21.67;;
23578;SDS011;11967;50.852;4.400;2022-11-15T01:22:01;35.97;;;21.42;;
23578;SDS011;11967;50.852;4.400;2022-11-15T01:24:26;34.35;;;20.55;;
23578;SDS011;11967;50.852;4.400;2022-11-15T01:26:52;34.13;;;21.33;;
23578;SDS011;11967;50.852;4.400;2022-11-15T01:29:18;32.05;;;20.88;;
23578;SDS011;11967;50.852;4.400;2022-11-15T01:31:43;33.60;;;20.23;;
23578;SDS011;11967;50.852;4.400;2022-11-15T01:34:09;34.88;;;20.95;;
23578;SDS011;11967;50.852;4.400;2022-11-15T01:36:35;35.45;;;20.05;;
23578;SDS011;11967;50.852;4.400;2022-11-15T01:39:00;34.50;;;19.48;;
23578;SDS011;11967;50.852;4.400;2022-11-15T01:41:30;30.98;;;19.70;;
23578;SDS011;11967;50.852;4.400;2022-11-15T01:44:31;26.77;;;18.63;;
23578;SDS011;11967;50.852;4.400;2022-11-15T01:46:58;27.77;;;17.25;;
23578;SDS011;11967;50.852;4.400;2022-11-15T01:49:26;29.38;;;16.95;;
23578;SDS011;11967;50.852;4.400;2022-11-15T01:51:55;26.20;;;16.63;;
23578;SDS011;11967;50.852;4.400;2022-11-15T01:54:22;26.67;;;16.83;;
23578;SDS011;11967;50.852;4.400;2022-11-15T01:56:50;24.77;;;15.68;;
23578;SDS011;11967;50.852;4.400;2022-11-15T01:59:21;24.13;;;14.88;;
23578;SDS011;11967;50.852;4.400;2022-11-15T02:01:47;26.25;;;16.08;;
23578;SDS011;11967;50.852;4.400;2022-11-15T02:04:15;22.20;;;14.57;;
23578;SDS011;11967;50.852;4.400;2022-11-15T02:06:45;25.27;;;15.65;;
23578;SDS011;11967;50.852;4.400;2022-11-15T02:09:13;22.38;;;15.00;;
23578;SDS011;11967;50.852;4.400;2022-11-15T02:11:39;24.23;;;14.73;;
23578;SDS011;11967;50.852;4.400;2022-11-15T02:14:05;23.00;;;13.82;;
23578;SDS011;11967;50.852;4.400;2022-11-15T02:24:41;23.98;;;14.93;;
23578;SDS011;11967;50.852;4.400;2022-11-15T02:27:36;22.05;;;13.85;;
23578;SDS011;11967;50.852;4.400;2022-11-15T02:32:54;22.58;;;14.40;;
23578;SDS011;11967;50.852;4.400;2022-11-15T02:35:43;24.85;;;15.00;;
23578;SDS011;11967;50.852;4.400;2022-11-15T02:38:22;23.70;;;14.32;;
23578;SDS011;11967;50.852;4.400;2022-11-15T02:41:01;24.48;;;14.65;;
23578;SDS011;11967;50.852;4.400;2022-11-15T02:43:38;22.45;;;14.45;;
23578;SDS011;11967;50.852;4.400;2022-11-15T02:46:43;22.40;;;13.77;;
23578;SDS011;11967;50.852;4.400;2022-11-15T02:49:32;29.33;;;15.07;;
23578;SDS011;11967;50.852;4.400;2022-11-15T02:51:59;21.95;;;14.20;;
23578;SDS011;11967;50.852;4.400;2022-11-15T02:54:26;21.95;;;13.77;;
23578;SDS011;11967;50.852;4.400;2022-11-15T02:56:56;22.00;;;13.18;;
23578;SDS011;11967;50.852;4.400;2022-11-15T03:13:39;16.10;;;10.77;;
23578;SDS011;11967;50.852;4.400;2022-11-15T03:16:15;17.50;;;10.40;;
23578;SDS011;11967;50.852;4.400;2022-11-15T03:18:53;21.48;;;10.80;;
23578;SDS011;11967;50.852;4.400;2022-11-15T03:21:23;18.30;;;10.30;;
23578;SDS011;11967;50.852;4.400;2022-11-15T03:23:49;19.15;;;10.50;;
23578;SDS011;11967;50.852;4.400;2022-11-15T03:26:18;19.27;;;10.10;;
23578;SDS011;11967;50.852;4.400;2022-11-15T03:28:50;15.85;;;9.63;;
23578;SDS011;11967;50.852;4.400;2022-11-15T03:31:19;17.23;;;9.85;;
23578;SDS011;11967;50.852;4.400;2022-11-15T03:34:06;24.25;;;10.18;;
23578;SDS011;11967;50.852;4.400;2022-11-15T03:36:37;15.68;;;9.45;;
23578;SDS011;11967;50.852;4.400;2022-11-15T03:39:05;16.85;;;9.18;;
23578;SDS011;11967;50.852;4.400;2022-11-15T03:41:38;15.35;;;8.90;;
23578;SDS011;11967;50.852;4.400;2022-11-15T03:46:46;15.93;;;8.15;;
23578;SDS011;11967;50.852;4.400;2022-11-15T03:49:24;14.98;;;8.02;;
23578;SDS011;11967;50.852;4.400;2022-11-15T03:51:56;20.88;;;7.53;;
23578;SDS011;11967;50.852;4.400;2022-11-15T03:54:23;16.80;;;8.60;;
23578;SDS011;11967;50.852;4.400;2022-11-15T03:56:48;15.00;;;7.47;;
23578;SDS011;11967;50.852;4.400;2022-11-15T03:59:14;15.38;;;8.13;;
23578;SDS011;11967;50.852;4.400;2022-11-15T04:01:40;13.55;;;7.30;;
23578;SDS011;11967;50.852;4.400;2022-11-15T04:04:05;11.48;;;7.32;;
23578;SDS011;11967;50.852;4.400;2022-11-15T04:06:31;17.02;;;7.38;;
23578;SDS011;11967;50.852;4.400;2022-11-15T04:08:56;14.65;;;7.15;;
23578;SDS011;11967;50.852;4.400;2022-11-15T04:11:22;14.20;;;6.90;;
23578;SDS011;11967;50.852;4.400;2022-11-15T04:13:47;12.23;;;6.78;;
23578;SDS011;11967;50.852;4.400;2022-11-15T04:16:13;12.85;;;7.03;;
23578;SDS011;11967;50.852;4.400;2022-11-15T04:18:39;12.75;;;6.93;;
23578;SDS011;11967;50.852;4.400;2022-11-15T04:21:04;11.52;;;6.90;;
23578;SDS011;11967;50.852;4.400;2022-11-15T04:23:48;14.75;;;6.80;;
23578;SDS011;11967;50.852;4.400;2022-11-15T04:26:29;9.20;;;5.78;;
23578;SDS011;11967;50.852;4.400;2022-11-15T04:28:55;11.98;;;6.32;;
23578;SDS011;11967;50.852;4.400;2022-11-15T04:31:58;8.90;;;5.95;;
23578;SDS011;11967;50.852;4.400;2022-11-15T04:34:24;16.80;;;6.55;;
23578;SDS011;11967;50.852;4.400;2022-11-15T04:36:50;10.30;;;6.00;;
23578;SDS011;11967;50.852;4.400;2022-11-15T04:39:34;12.57;;;5.95;;
23578;SDS011;11967;50.852;4.400;2022-11-15T04:42:00;14.93;;;6.00;;
23578;SDS011;11967;50.852;4.400;2022-11-15T04:44:25;12.40;;;6.00;;
23578;SDS011;11967;50.852;4.400;2022-11-15T04:46:51;13.57;;;6.18;;
23578;SDS011;11967;50.852;4.400;2022-11-15T04:49:16;11.05;;;6.10;;
23578;SDS011;11967;50.852;4.400;2022-11-15T04:51:42;16.33;;;6.20;;
23578;SDS011;11967;50.852;4.400;2022-11-15T04:54:08;11.75;;;5.80;;
23578;SDS011;11967;50.852;4.400;2022-11-15T04:56:34;11.50;;;5.90;;
23578;SDS011;11967;50.852;4.400;2022-11-15T04:58:59;10.25;;;5.75;;
23578;SDS011;11967;50.852;4.400;2022-11-15T05:01:25;11.57;;;5.93;;
23578;SDS011;11967;50.852;4.400;2022-11-15T05:03:50;14.93;;;5.43;;
23578;SDS011;11967;50.852;4.400;2022-11-15T05:06:34;10.73;;;5.28;;
23578;SDS011;11967;50.852;4.400;2022-11-15T05:09:00;11.30;;;5.40;;
23578;SDS011;11967;50.852;4.400;2022-11-15T05:11:26;10.60;;;5.38;;
23578;SDS011;11967;50.852;4.400;2022-11-15T05:13:52;12.88;;;5.35;;
23578;SDS011;11967;50.852;4.400;2022-11-15T05:16:19;9.50;;;5.10;;
23578;SDS011;11967;50.852;4.400;2022-11-15T05:18:45;14.02;;;5.25;;
23578;SDS011;11967;50.852;4.400;2022-11-15T05:21:13;11.80;;;4.93;;
23578;SDS011;11967;50.852;4.400;2022-11-15T05:23:40;8.35;;;4.45;;
23578;SDS011;11967;50.852;4.400;2022-11-15T05:26:06;9.77;;;4.68;;
23578;SDS011;11967;50.852;4.400;2022-11-15T05:28:33;10.85;;;4.65;;
23578;SDS011;11967;50.852;4.400;2022-11-15T05:31:06;11.02;;;4.75;;
23578;SDS011;11967;50.852;4.400;2022-11-15T05:33:33;9.85;;;4.50;;
23578;SDS011;11967;50.852;4.400;2022-11-15T05:36:10;11.68;;;4.38;;
23578;SDS011;11967;50.852;4.400;2022-11-15T05:38:43;9.52;;;4.50;;
23578;SDS011;11967;50.852;4.400;2022-11-15T05:41:09;7.85;;;3.80;;
23578;SDS011;11967;50.852;4.400;2022-11-15T05:43:36;10.32;;;4.05;;
23578;SDS011;11967;50.852;4.400;2022-11-15T05:46:04;8.80;;;3.78;;
23578;SDS011;11967;50.852;4.400;2022-11-15T05:48:30;10.10;;;3.72;;
23578;SDS011;11967;50.852;4.400;2022-11-15T05:50:57;8.25;;;3.83;;
23578;SDS011;11967;50.852;4.400;2022-11-15T05:53:24;8.32;;;3.50;;
23578;SDS011;11967;50.852;4.400;2022-11-15T05:55:51;7.05;;;3.75;;
23578;SDS011;11967;50.852;4.400;2022-11-15T05:58:17;12.48;;;4.20;;
23578;SDS011;11967;50.852;4.400;2022-11-15T06:00:51;12.52;;;4.68;;
23578;SDS011;11967;50.852;4.400;2022-11-15T06:03:18;12.88;;;4.45;;
23578;SDS011;11967;50.852;4.400;2022-11-15T06:05:43;9.77;;;3.80;;
23578;SDS011;11967;50.852;4.400;2022-11-15T06:08:09;9.45;;;3.60;;
23578;SDS011;11967;50.852;4.400;2022-11-15T06:10:34;10.15;;;4.45;;
23578;SDS011;11967;50.852;4.400;2022-11-15T06:13:01;8.57;;;4.10;;
23578;SDS011;11967;50.852;4.400;2022-11-15T06:15:31;8.93;;;4.25;;
23578;SDS011;11967;50.852;4.400;2022-11-15T06:17:59;7.50;;;3.63;;
23578;SDS011;11967;50.852;4.400;2022-11-15T06:20:26;16.90;;;3.70;;
23578;SDS011;11967;50.852;4.400;2022-11-15T06:22:59;9.20;;;3.63;;
23578;SDS011;11967;50.852;4.400;2022-11-15T06:25:26;11.18;;;3.55;;
23578;SDS011;11967;50.852;4.400;2022-11-15T06:27:56;9.90;;;3.78;;
23578;SDS011;11967;50.852;4.400;2022-11-15T06:30:23;9.93;;;3.20;;
23578;SDS011;11967;50.852;4.400;2022-11-15T06:32:50;7.90;;;3.20;;
23578;SDS011;11967;50.852;4.400;2022-11-15T06:35:16;6.85;;;3.28;;
23578;SDS011;11967;50.852;4.400;2022-11-15T06:37:42;8.98;;;3.80;;
23578;SDS011;11967;50.852;4.400;2022-11-15T06:40:08;10.38;;;3.83;;
23578;SDS011;11967;50.852;4.400;2022-11-15T06:42:35;13.10;;;4.10;;
23578;SDS011;11967;50.852;4.400;2022-11-15T06:45:00;11.93;;;4.18;;
23578;SDS011;11967;50.852;4.400;2022-11-15T06:47:26;9.05;;;3.70;;
23578;SDS011;11967;50.852;4.400;2022-11-15T06:49:52;10.23;;;4.18;;
23578;SDS011;11967;50.852;4.400;2022-11-15T06:52:17;10.23;;;3.88;;
23578;SDS011;11967;50.852;4.400;2022-11-15T06:54:44;9.75;;;3.80;;
23578;SDS011;11967;50.852;4.400;2022-11-15T06:57:11;7.50;;;3.60;;
23578;SDS011;11967;50.852;4.400;2022-11-15T06:59:37;12.52;;;3.72;;
23578;SDS011;11967;50.852;4.400;2022-11-15T07:02:02;9.40;;;3.45;;
23578;SDS011;11967;50.852;4.400;2022-11-15T07:04:28;13.18;;;3.83;;
23578;SDS011;11967;50.852;4.400;2022-11-15T07:06:54;8.50;;;3.55;;
23578;SDS011;11967;50.852;4.400;2022-11-15T07:09:19;12.90;;;3.70;;
23578;SDS011;11967;50.852;4.400;2022-11-15T07:11:45;7.28;;;3.63;;
23578;SDS011;11967;50.852;4.400;2022-11-15T07:14:10;13.48;;;3.97;;
23578;SDS011;11967;50.852;4.400;2022-11-15T07:16:36;11.23;;;3.50;;
23578;SDS011;11967;50.852;4.400;2022-11-15T07:19:02;11.90;;;3.60;;
23578;SDS011;11967;50.852;4.400;2022-11-15T07:21:28;9.55;;;3.65;;
23578;SDS011;11967;50.852;4.400;2022-11-15T07:23:54;9.05;;;3.72;;
23578;SDS011;11967;50.852;4.400;2022-11-15T07:26:19;6.90;;;3.47;;
23578;SDS011;11967;50.852;4.400;2022-11-15T07:28:46;8.48;;;3.70;;
23578;SDS011;11967;50.852;4.400;2022-11-15T07:31:12;10.32;;;3.75;;
23578;SDS011;11967;50.852;4.400;2022-11-15T07:33:37;7.57;;;4.00;;
23578;SDS011;11967;50.852;4.400;2022-11-15T07:36:04;8.52;;;3.80;;
23578;SDS011;11967;50.852;4.400;2022-11-15T07:38:31;10.35;;;4.07;;
23578;SDS011;11967;50.852;4.400;2022-11-15T07:40:58;6.65;;;3.58;;
23578;SDS011;11967;50.852;4.400;2022-11-15T07:43:26;6.65;;;3.53;;
23578;SDS011;11967;50.852;4.400;2022-11-15T07:45:57;8.02;;;3.42;;
23578;SDS011;11967;50.852;4.400;2022-11-15T07:48:23;9.00;;;3.50;;
23578;SDS011;11967;50.852;4.400;2022-11-15T07:50:50;8.48;;;3.58;;
23578;SDS011;11967;50.852;4.400;2022-11-15T07:53:15;12.68;;;3.83;;
23578;SDS011;11967;50.852;4.400;2022-11-15T07:55:41;6.63;;;3.50;;
23578;SDS011;11967;50.852;4.400;2022-11-15T07:58:08;6.40;;;3.65;;
23578;SDS011;11967;50.852;4.400;2022-11-15T08:00:35;8.43;;;3.90;;
23578;SDS011;11967;50.852;4.400;2022-11-15T08:03:06;9.60;;;3.65;;
23578;SDS011;11967;50.852;4.400;2022-11-15T08:05:33;7.30;;;3.70;;
23578;SDS011;11967;50.852;4.400;2022-11-15T08:07:59;7.07;;;3.38;;
23578;SDS011;11967;50.852;4.400;2022-11-15T08:10:25;10.85;;;3.72;;
23578;SDS011;11967;50.852;4.400;2022-11-15T08:13:02;7.80;;;3.60;;
23578;SDS011;11967;50.852;4.400;2022-11-15T08:15:30;11.23;;;3.75;;
23578;SDS011;11967;50.852;4.400;2022-11-15T08:17:57;11.00;;;3.88;;
23578;SDS011;11967;50.852;4.400;2022-11-15T08:20:24;11.20;;;3.60;;
23578;SDS011;11967;50.852;4.400;2022-11-15T08:22:51;10.35;;;3.38;;
23578;SDS011;11967;50.852;4.400;2022-11-15T08:25:17;11.68;;;3.08;;
23578;SDS011;11967;50.852;4.400;2022-11-15T08:27:42;10.48;;;3.03;;
23578;SDS011;11967;50.852;4.400;2022-11-15T08:30:08;8.75;;;3.20;;
23578;SDS011;11967;50.852;4.400;2022-11-15T08:32:35;9.30;;;2.90;;
23578;SDS011;11967;50.852;4.400;2022-11-15T08:35:00;7.82;;;2.67;;
23578;SDS011;11967;50.852;4.400;2022-11-15T08:37:26;10.52;;;2.85;;
23578;SDS011;11967;50.852;4.400;2022-11-15T08:39:51;9.65;;;2.33;;
23578;SDS011;11967;50.852;4.400;2022-11-15T08:42:17;10.98;;;2.90;;
23578;SDS011;11967;50.852;4.400;2022-11-15T08:44:43;8.20;;;2.70;;
23578;SDS011;11967;50.852;4.400;2022-11-15T08:47:10;12.32;;;3.20;;
23578;SDS011;11967;50.852;4.400;2022-11-15T08:49:37;8.10;;;2.88;;
23578;SDS011;11967;50.852;4.400;2022-11-15T08:52:03;8.88;;;2.55;;
23578;SDS011;11967;50.852;4.400;2022-11-15T08:54:28;9.23;;;2.80;;
23578;SDS011;11967;50.852;4.400;2022-11-15T08:56:54;14.35;;;3.70;;
23578;SDS011;11967;50.852;4.400;2022-11-15T08:59:19;8.68;;;2.60;;
23578;SDS011;11967;50.852;4.400;2022-11-15T09:01:45;6.75;;;2.40;;
23578;SDS011;11967;50.852;4.400;2022-11-15T09:04:11;8.80;;;2.30;;
23578;SDS011;11967;50.852;4.400;2022-11-15T09:06:36;7.32;;;2.30;;
23578;SDS011;11967;50.852;4.400;2022-11-15T09:09:02;9.82;;;2.50;;
23578;SDS011;11967;50.852;4.400;2022-11-15T09:11:28;12.35;;;2.60;;
23578;SDS011;11967;50.852;4.400;2022-11-15T09:13:54;8.70;;;2.38;;
23578;SDS011;11967;50.852;4.400;2022-11-15T09:16:19;9.93;;;2.20;;
23578;SDS011;11967;50.852;4.400;2022-11-15T09:18:45;8.50;;;2.22;;
23578;SDS011;11967;50.852;4.400;2022-11-15T09:21:11;5.63;;;2.40;;
23578;SDS011;11967;50.852;4.400;2022-11-15T09:23:37;8.73;;;2.40;;
23578;SDS011;11967;50.852;4.400;2022-11-15T09:26:05;10.07;;;2.50;;
23578;SDS011;11967;50.852;4.400;2022-11-15T09:28:32;6.18;;;2.30;;
23578;SDS011;11967;50.852;4.400;2022-11-15T09:30:58;10.48;;;2.45;;
23578;SDS011;11967;50.852;4.400;2022-11-15T09:33:28;8.23;;;2.00;;
23578;SDS011;11967;50.852;4.400;2022-11-15T09:35:59;9.27;;;2.03;;
23578;SDS011;11967;50.852;4.400;2022-11-15T09:38:29;6.90;;;2.00;;
23578;SDS011;11967;50.852;4.400;2022-11-15T09:41:18;9.25;;;2.08;;
23578;SDS011;11967;50.852;4.400;2022-11-15T09:49:53;8.57;;;1.80;;
23578;SDS011;11967;50.852;4.400;2022-11-15T09:52:21;10.38;;;2.33;;
23578;SDS011;11967;50.852;4.400;2022-11-15T09:54:48;10.23;;;2.35;;
23578;SDS011;11967;50.852;4.400;2022-11-15T09:57:17;5.30;;;1.65;;
23578;SDS011;11967;50.852;4.400;2022-11-15T10:05:29;13.38;;;2.33;;
23578;SDS011;11967;50.852;4.400;2022-11-15T10:10:59;8.05;;;1.80;;
23578;SDS011;11967;50.852;4.400;2022-11-15T10:13:34;8.60;;;1.50;;
23578;SDS011;11967;50.852;4.400;2022-11-15T10:24:46;10.75;;;2.38;;
23578;SDS011;11967;50.852;4.400;2022-11-15T10:27:17;7.88;;;1.73;;
23578;SDS011;11967;50.852;4.400;2022-11-15T10:29:48;8.52;;;1.85;;
23578;SDS011;11967;50.852;4.400;2022-11-15T10:32:16;8.88;;;2.13;;
23578;SDS011;11967;50.852;4.400;2022-11-15T10:34:43;11.45;;;2.20;;
23578;SDS011;11967;50.852;4.400;2022-11-15T10:37:09;11.48;;;2.30;;
23578;SDS011;11967;50.852;4.400;2022-11-15T10:39:35;10.75;;;1.98;;
23578;SDS011;11967;50.852;4.400;2022-11-15T10:44:42;5.80;;;1.90;;
23578;SDS011;11967;50.852;4.400;2022-11-15T10:47:43;8.63;;;1.77;;
23578;SDS011;11967;50.852;4.400;2022-11-15T10:50:06;11.88;;;1.92;;
23578;SDS011;11967;50.852;4.400;2022-11-15T10:52:50;7.88;;;2.05;;
23578;SDS011;11967;50.852;4.400;2022-11-15T10:57:47;5.55;;;1.67;;
23578;SDS011;11967;50.852;4.400;2022-11-15T11:00:37;7.57;;;1.73;;
23578;SDS011;11967;50.852;4.400;2022-11-15T11:08:38;9.65;;;1.73;;
23578;SDS011;11967;50.852;4.400;2022-11-15T11:11:04;7.30;;;1.70;;
23578;SDS011;11967;50.852;4.400;2022-11-15T11:13:32;8.15;;;1.90;;
23578;SDS011;11967;50.852;4.400;2022-11-15T11:18:57;8.90;;;1.70;;
23578;SDS011;11967;50.852;4.400;2022-11-15T11:21:39;9.75;;;1.90;;
23578;SDS011;11967;50.852;4.400;2022-11-15T11:29:58;66.32;;;5.18;;
23578;SDS011;11967;50.852;4.400;2022-11-15T11:41:00;10.48;;;1.98;;
23578;SDS011;11967;50.852;4.400;2022-11-15T11:44:05;7.10;;;2.08;;
23578;SDS011;11967;50.852;4.400;2022-11-15T11:46:59;9.77;;;1.70;;
23578;SDS011;11967;50.852;4.400;2022-11-15T12:00:27;9.30;;;1.98;;
23578;SDS011;11967;50.852;4.400;2022-11-15T12:03:08;7.38;;;1.77;;
23578;SDS011;11967;50.852;4.400;2022-11-15T12:05:35;6.15;;;1.67;;
23578;SDS011;11967;50.852;4.400;2022-11-15T12:11:45;7.30;;;2.00;;
23578;SDS011;11967;50.852;4.400;2022-11-15T12:13:58;7.03;;;1.50;;
23578;SDS011;11967;50.852;4.400;2022-11-15T12:16:27;7.32;;;1.70;;
23578;SDS011;11967;50.852;4.400;2022-11-15T12:18:55;8.77;;;2.00;;
23578;SDS011;11967;50.852;4.400;2022-11-15T12:21:42;6.60;;;1.40;;
23578;SDS011;11967;50.852;4.400;2022-11-15T12:24:24;6.93;;;1.55;;
23578;SDS011;11967;50.852;4.400;2022-11-15T12:29:50;7.45;;;1.40;;
23578;SDS011;11967;50.852;4.400;2022-11-15T12:34:55;8.32;;;1.30;;
23578;SDS011;11967;50.852;4.400;2022-11-15T12:43:10;8.27;;;1.50;;
23578;SDS011;11967;50.852;4.400;2022-11-15T12:45:42;6.57;;;1.63;;
23578;SDS011;11967;50.852;4.400;2022-11-15T12:58:40;12.05;;;1.80;;
23578;SDS011;11967;50.852;4.400;2022-11-15T13:06:42;9.18;;;1.70;;
23578;SDS011;11967;50.852;4.400;2022-11-15T13:22:32;10.20;;;1.80;;
23578;SDS011;11967;50.852;4.400;2022-11-15T13:28:20;6.80;;;1.98;;
23578;SDS011;11967;50.852;4.400;2022-11-15T13:33:55;5.97;;;1.70;;
23578;SDS011;11967;50.852;4.400;2022-11-15T13:36:24;4.25;;;1.70;;
23578;SDS011;11967;50.852;4.400;2022-11-15T13:38:54;4.22;;;1.60;;
23578;SDS011;11967;50.852;4.400;2022-11-15T13:41:29;5.43;;;1.58;;
23578;SDS011;11967;50.852;4.400;2022-11-15T13:43:56;6.22;;;1.42;;
23578;SDS011;11967;50.852;4.400;2022-11-15T13:46:24;4.85;;;1.60;;
23578;SDS011;11967;50.852;4.400;2022-11-15T13:48:54;5.70;;;1.80;;
23578;SDS011;11967;50.852;4.400;2022-11-15T13:51:36;3.33;;;1.70;;
23578;SDS011;11967;50.852;4.400;2022-11-15T13:54:23;7.20;;;1.98;;
23578;SDS011;11967;50.852;4.400;2022-11-15T13:57:02;6.07;;;1.70;;
23578;SDS011;11967;50.852;4.400;2022-11-15T13:59:34;8.27;;;1.60;;
23578;SDS011;11967;50.852;4.400;2022-11-15T14:02:03;6.53;;;1.70;;
23578;SDS011;11967;50.852;4.400;2022-11-15T14:04:39;8.02;;;1.80;;
23578;SDS011;11967;50.852;4.400;2022-11-15T14:07:16;5.88;;;2.00;;
23578;SDS011;11967;50.852;4.400;2022-11-15T14:09:44;2.65;;;1.73;;
23578;SDS011;11967;50.852;4.400;2022-11-15T14:12:28;5.90;;;1.70;;
23578;SDS011;11967;50.852;4.400;2022-11-15T14:14:59;8.35;;;1.70;;
23578;SDS011;11967;50.852;4.400;2022-11-15T14:19:56;7.03;;;1.98;;
23578;SDS011;11967;50.852;4.400;2022-11-15T14:22:24;4.85;;;1.75;;
23578;SDS011;11967;50.852;4.400;2022-11-15T14:25:05;6.72;;;1.70;;
23578;SDS011;11967;50.852;4.400;2022-11-15T14:27:44;6.25;;;2.22;;
23578;SDS011;11967;50.852;4.400;2022-11-15T14:30:29;7.68;;;1.70;;
23578;SDS011;11967;50.852;4.400;2022-11-15T14:32:55;5.22;;;1.83;;
23578;SDS011;11967;50.852;4.400;2022-11-15T14:35:21;7.07;;;2.45;;
23578;SDS011;11967;50.852;4.400;2022-11-15T14:37:48;6.40;;;2.13;;
23578;SDS011;11967;50.852;4.400;2022-11-15T14:40:18;3.80;;;1.90;;
23578;SDS011;11967;50.852;4.400;2022-11-15T14:42:46;6.60;;;2.40;;
23578;SDS011;11967;50.852;4.400;2022-11-15T14:45:17;5.15;;;1.88;;
23578;SDS011;11967;50.852;4.400;2022-11-15T14:47:44;6.03;;;2.20;;
23578;SDS011;11967;50.852;4.400;2022-11-15T14:50:14;3.72;;;2.08;;
23578;SDS011;11967;50.852;4.400;2022-11-15T14:52:41;4.38;;;1.75;;
23578;SDS011;11967;50.852;4.400;2022-11-15T14:57:45;8.45;;;1.90;;
23578;SDS011;11967;50.852;4.400;2022-11-15T15:00:13;3.58;;;1.95;;
23578;SDS011;11967;50.852;4.400;2022-11-15T15:02:39;5.60;;;1.73;;
23578;SDS011;11967;50.852;4.400;2022-11-15T15:05:30;3.88;;;1.92;;
23578;SDS011;11967;50.852;4.400;2022-11-15T15:08:03;5.07;;;1.77;;
23578;SDS011;11967;50.852;4.400;2022-11-15T15:10:37;5.00;;;2.08;;
23578;SDS011;11967;50.852;4.400;2022-11-15T15:15:44;3.17;;;1.90;;
23578;SDS011;11967;50.852;4.400;2022-11-15T15:18:10;3.17;;;2.10;;
23578;SDS011;11967;50.852;4.400;2022-11-15T15:20:36;4.60;;;2.00;;
23578;SDS011;11967;50.852;4.400;2022-11-15T15:23:04;3.35;;;1.90;;
23578;SDS011;11967;50.852;4.400;2022-11-15T15:25:31;4.07;;;1.95;;
23578;SDS011;11967;50.852;4.400;2022-11-15T15:27:58;3.42;;;1.85;;
23578;SDS011;11967;50.852;4.400;2022-11-15T15:30:25;3.15;;;1.80;;
23578;SDS011;11967;50.852;4.400;2022-11-15T15:32:51;4.28;;;1.88;;
23578;SDS011;11967;50.852;4.400;2022-11-15T15:35:18;5.93;;;2.17;;
23578;SDS011;11967;50.852;4.400;2022-11-15T15:37:45;3.35;;;1.90;;
23578;SDS011;11967;50.852;4.400;2022-11-15T15:40:16;6.10;;;2.30;;
23578;SDS011;11967;50.852;4.400;2022-11-15T15:42:47;4.75;;;2.30;;
23578;SDS011;11967;50.852;4.400;2022-11-15T15:45:13;6.07;;;2.08;;
23578;SDS011;11967;50.852;4.400;2022-11-15T15:47:40;5.20;;;1.88;;
23578;SDS011;11967;50.852;4.400;2022-11-15T15:55:16;4.18;;;1.90;;
23578;SDS011;11967;50.852;4.400;2022-11-15T15:57:42;3.70;;;2.25;;
23578;SDS011;11967;50.852;4.400;2022-11-15T16:00:08;3.72;;;2.40;;
23578;SDS011;11967;50.852;4.400;2022-11-15T16:02:34;4.90;;;2.47;;
23578;SDS011;11967;50.852;4.400;2022-11-15T16:05:00;3.45;;;2.30;;
23578;SDS011;11967;50.852;4.400;2022-11-15T16:07:25;6.85;;;2.55;;
23578;SDS011;11967;50.852;4.400;2022-11-15T16:09:53;5.93;;;2.38;;
23578;SDS011;11967;50.852;4.400;2022-11-15T16:12:25;5.93;;;2.72;;
23578;SDS011;11967;50.852;4.400;2022-11-15T16:14:56;5.70;;;2.65;;
23578;SDS011;11967;50.852;4.400;2022-11-15T16:17:22;6.03;;;2.72;;
23578;SDS011;11967;50.852;4.400;2022-11-15T16:19:53;4.20;;;2.47;;
23578;SDS011;11967;50.852;4.400;2022-11-15T16:22:19;5.03;;;2.30;;
23578;SDS011;11967;50.852;4.400;2022-11-15T16:24:47;4.95;;;2.55;;
23578;SDS011;11967;50.852;4.400;2022-11-15T16:27:17;5.72;;;2.50;;
23578;SDS011;11967;50.852;4.400;2022-11-15T16:29:45;4.95;;;3.00;;
23578;SDS011;11967;50.852;4.400;2022-11-15T16:32:11;7.60;;;3.00;;
23578;SDS011;11967;50.852;4.400;2022-11-15T16:34:37;6.20;;;2.95;;
23578;SDS011;11967;50.852;4.400;2022-11-15T16:37:03;8.25;;;4.00;;
23578;SDS011;11967;50.852;4.400;2022-11-15T16:39:30;6.47;;;3.70;;
23578;SDS011;11967;50.852;4.400;2022-11-15T16:41:56;6.05;;;3.47;;
23578;SDS011;11967;50.852;4.400;2022-11-15T16:44:23;4.55;;;3.20;;
23578;SDS011;11967;50.852;4.400;2022-11-15T16:46:49;6.80;;;3.50;;
23578;SDS011;11967;50.852;4.400;2022-11-15T16:49:18;5.28;;;2.97;;
23578;SDS011;11967;50.852;4.400;2022-11-15T16:51:47;7.88;;;3.33;;
23578;SDS011;11967;50.852;4.400;2022-11-15T16:54:16;8.38;;;3.25;;
23578;SDS011;11967;50.852;4.400;2022-11-15T16:56:41;5.35;;;3.10;;
23578;SDS011;11967;50.852;4.400;2022-11-15T16:59:08;4.40;;;3.10;;
23578;SDS011;11967;50.852;4.400;2022-11-15T17:01:39;5.78;;;3.35;;
23578;SDS011;11967;50.852;4.400;2022-11-15T17:04:14;4.57;;;3.10;;
23578;SDS011;11967;50.852;4.400;2022-11-15T17:06:42;6.28;;;3.83;;
23578;SDS011;11967;50.852;4.400;2022-11-15T17:09:13;6.80;;;3.53;;
23578;SDS011;11967;50.852;4.400;2022-11-15T17:11:41;5.15;;;3.20;;
23578;SDS011;11967;50.852;4.400;2022-11-15T17:14:07;5.13;;;3.58;;
23578;SDS011;11967;50.852;4.400;2022-11-15T17:16:33;4.90;;;3.50;;
23578;SDS011;11967;50.852;4.400;2022-11-15T17:19:01;5.03;;;3.33;;
23578;SDS011;11967;50.852;4.400;2022-11-15T17:21:28;6.80;;;3.70;;
23578;SDS011;11967;50.852;4.400;2022-11-15T17:23:53;6.03;;;3.40;;